createdAt,value
2022-11-16T00:00:55.774Z,1.85
2022-11-16T00:03:58.510Z,1.77
2022-11-16T00:07:00.991Z,1.98
2022-11-16T00:10:03.881Z,2.00
2022-11-16T00:13:06.709Z,2.03
2022-11-16T00:16:09.169Z,2.10
2022-11-16T00:19:12.223Z,2.20
2022-11-16T00:22:14.638Z,2.00
2022-11-16T00:25:16.494Z,1.95
2022-11-16T00:28:18.649Z,1.90
2022-11-16T00:31:22.126Z,2.13
2022-11-16T00:34:24.797Z,1.90
2022-11-16T00:37:27.938Z,2.20
2022-11-16T00:40:30.544Z,2.28
2022-11-16T00:43:32.933Z,2.25
2022-11-16T00:46:35.837Z,2.30
2022-11-16T00:49:38.664Z,2.15
2022-11-16T00:52:41.411Z,2.17
2022-11-16T00:55:44.176Z,2.03
2022-11-16T00:58:46.306Z,1.92
2022-11-16T01:01:48.497Z,2.00
2022-11-16T01:04:51.979Z,1.90
2022-11-16T01:07:54.727Z,2.00
2022-11-16T01:10:56.875Z,2.25
2022-11-16T01:13:59.448Z,2.10
2022-11-16T01:17:02.208Z,1.95
2022-11-16T01:20:05.426Z,2.15
2022-11-16T01:23:07.840Z,2.05
2022-11-16T01:26:10.503Z,2.28
2022-11-16T01:29:14.407Z,2.00
2022-11-16T01:32:21.664Z,2.38
2022-11-16T01:35:24.583Z,2.30
2022-11-16T01:38:29.952Z,1.90
2022-11-16T01:41:33.032Z,1.90
2022-11-16T01:44:38.535Z,2.08
2022-11-16T01:47:48.055Z,1.83
2022-11-16T01:50:54.251Z,2.10
2022-11-16T01:53:56.716Z,1.92
2022-11-16T01:57:00.012Z,2.13
2022-11-16T02:00:14.477Z,2.20
2022-11-16T02:03:23.606Z,1.92
2022-11-16T02:06:28.089Z,2.28
2022-11-16T02:09:41.602Z,2.20
2022-11-16T02:12:44.586Z,2.30
2022-11-16T02:15:50.496Z,1.90
2022-11-16T02:18:59.285Z,2.00
2022-11-16T02:22:01.933Z,2.17
2022-11-16T02:25:04.408Z,1.80
2022-11-16T02:28:06.623Z,1.92
2022-11-16T02:31:08.754Z,2.50
2022-11-16T02:34:11.277Z,2.22
2022-11-16T02:37:16.447Z,2.28
2022-11-16T02:40:19.252Z,2.10
2022-11-16T02:43:23.049Z,2.03
2022-11-16T02:46:26.554Z,2.00
2022-11-16T02:49:29.473Z,2.45
2022-11-16T02:52:33.378Z,2.25
2022-11-16T02:55:36.162Z,1.95
2022-11-16T02:58:38.352Z,2.10
2022-11-16T03:01:40.346Z,2.00
2022-11-16T03:04:43.699Z,2.10
2022-11-16T03:07:46.396Z,1.90
2022-11-16T03:10:48.944Z,2.00
2022-11-16T03:13:52.030Z,1.88
2022-11-16T03:16:54.515Z,2.10
2022-11-16T03:19:56.673Z,2.00
2022-11-16T03:22:59.503Z,1.90
2022-11-16T03:26:03.062Z,2.22
2022-11-16T03:29:06.022Z,1.83
2022-11-16T03:32:09.746Z,2.00
2022-11-16T03:35:14.230Z,1.88
2022-11-16T03:38:17.439Z,1.73
2022-11-16T03:41:22.800Z,2.30
2022-11-16T03:44:25.247Z,1.90
2022-11-16T03:47:27.471Z,1.85
2022-11-16T03:50:30.011Z,1.90
2022-11-16T03:53:34.086Z,2.00
2022-11-16T03:56:37.313Z,1.90
2022-11-16T03:59:40.045Z,2.00
2022-11-16T04:02:42.822Z,2.00
2022-11-16T04:05:51.438Z,2.10
2022-11-16T04:08:53.623Z,1.88
2022-11-16T04:11:57.096Z,1.90
2022-11-16T04:15:00.002Z,1.70
2022-11-16T04:18:04.416Z,1.77
2022-11-16T04:21:07.198Z,1.80
2022-11-16T04:24:09.581Z,1.70
2022-11-16T04:27:12.065Z,1.90
2022-11-16T04:30:15.624Z,2.00
2022-11-16T04:33:19.042Z,1.60
2022-11-16T04:36:21.572Z,1.98
2022-11-16T04:39:23.730Z,1.70
2022-11-16T04:42:28.301Z,1.70
2022-11-16T04:45:31.176Z,1.90
2022-11-16T04:48:33.826Z,1.80
2022-11-16T04:51:38.214Z,1.50
2022-11-16T04:54:41.392Z,1.73
2022-11-16T04:57:45.074Z,1.70
2022-11-16T05:00:48.116Z,1.92
2022-11-16T05:03:50.265Z,1.55
2022-11-16T05:06:53.101Z,1.58
2022-11-16T05:09:55.715Z,1.60
2022-11-16T05:12:58.202Z,1.50
2022-11-16T05:16:02.475Z,1.55
2022-11-16T05:19:05.160Z,1.35
2022-11-16T05:22:08.390Z,1.27
2022-11-16T05:25:10.607Z,1.50
2022-11-16T05:28:13.453Z,1.33
2022-11-16T05:31:16.246Z,1.30
2022-11-16T05:34:18.795Z,1.40
2022-11-16T05:37:20.987Z,1.17
2022-11-16T05:40:23.590Z,1.25
2022-11-16T05:43:32.922Z,1.30
2022-11-16T05:46:43.724Z,1.40
2022-11-16T05:49:46.811Z,1.27
2022-11-16T05:52:49.948Z,1.30
2022-11-16T05:55:52.893Z,1.20
2022-11-16T05:58:56.552Z,1.20
2022-11-16T06:01:59.016Z,1.33
2022-11-16T06:05:02.051Z,1.20
2022-11-16T06:08:04.767Z,1.30
2022-11-16T06:11:08.002Z,1.20
2022-11-16T06:14:11.607Z,1.10
2022-11-16T06:17:14.881Z,1.13
2022-11-16T06:20:18.855Z,1.25
2022-11-16T06:23:22.046Z,1.10
2022-11-16T06:26:25.618Z,1.17
2022-11-16T06:29:27.923Z,1.25
2022-11-16T06:32:30.553Z,1.20
2022-11-16T06:35:32.782Z,1.30
2022-11-16T06:38:36.484Z,1.20
2022-11-16T06:41:41.524Z,1.23
2022-11-16T06:44:46.465Z,1.42
2022-11-16T06:47:51.681Z,1.38
2022-11-16T06:50:54.292Z,1.20
2022-11-16T06:53:57.280Z,1.30
2022-11-16T06:57:00.043Z,1.17
2022-11-16T07:00:02.880Z,1.30
2022-11-16T07:03:06.719Z,1.25
2022-11-16T07:06:09.341Z,1.20
2022-11-16T07:09:12.998Z,1.50
2022-11-16T07:12:15.313Z,1.30
2022-11-16T07:15:18.397Z,1.38
2022-11-16T07:18:23.019Z,1.30
2022-11-16T07:21:25.239Z,1.50
2022-11-16T07:24:29.718Z,1.50
2022-11-16T07:27:32.262Z,1.65
2022-11-16T07:30:35.122Z,1.50
2022-11-16T07:33:47.082Z,1.40
2022-11-16T07:37:09.462Z,1.42
2022-11-16T07:40:12.940Z,1.65
2022-11-16T07:43:15.540Z,1.75
2022-11-16T07:49:51.245Z,1.60
2022-11-16T07:52:55.919Z,1.65
2022-11-16T07:55:58.080Z,1.52
2022-11-16T07:59:02.632Z,1.40
2022-11-16T08:02:09.794Z,1.60
2022-11-16T08:05:14.231Z,1.48
2022-11-16T08:08:16.993Z,1.40
2022-11-16T08:11:19.927Z,1.70
2022-11-16T08:14:22.941Z,1.60
2022-11-16T08:17:28.493Z,1.20
2022-11-16T08:20:31.041Z,1.33
2022-11-16T08:23:34.295Z,1.30
2022-11-16T08:26:37.715Z,1.40
2022-11-16T08:29:44.973Z,1.30
2022-11-16T08:32:48.995Z,1.30
2022-11-16T08:35:52.426Z,1.30
2022-11-16T08:38:56.204Z,1.40
2022-11-16T08:41:59.797Z,1.30
2022-11-16T08:45:02.334Z,1.40
2022-11-16T08:48:05.292Z,1.30
2022-11-16T08:51:18.955Z,1.50
2022-11-16T08:54:27.104Z,1.17
2022-11-16T08:57:29.746Z,1.40
2022-11-16T09:00:35.083Z,1.30
2022-11-16T09:03:37.516Z,1.23
2022-11-16T09:06:40.019Z,1.20
2022-11-16T09:09:42.929Z,1.30
2022-11-16T09:12:45.357Z,1.30
2022-11-16T09:15:48.148Z,1.30
2022-11-16T09:18:50.563Z,1.20
2022-11-16T09:21:53.867Z,1.20
2022-11-16T09:24:56.699Z,1.33
2022-11-16T09:27:59.260Z,1.30
2022-11-16T09:31:01.833Z,1.60
2022-11-16T09:34:04.444Z,1.13
2022-11-16T09:37:06.728Z,1.23
2022-11-16T09:40:09.899Z,1.20
2022-11-16T09:43:12.681Z,1.30
2022-11-16T09:46:15.498Z,1.30
2022-11-16T09:49:18.205Z,1.23
2022-11-16T09:52:20.880Z,1.15
2022-11-16T09:55:23.467Z,1.40
2022-11-16T09:58:25.934Z,1.20
2022-11-16T10:01:28.432Z,1.40
2022-11-16T10:04:31.493Z,1.17
2022-11-16T10:07:34.334Z,1.33
2022-11-16T10:10:36.876Z,1.10
2022-11-16T10:13:39.796Z,1.42
2022-11-16T10:16:42.702Z,1.20
2022-11-16T10:19:45.184Z,1.30
2022-11-16T10:22:48.026Z,1.25
2022-11-16T10:25:50.912Z,1.38
2022-11-16T10:28:53.407Z,1.25
2022-11-16T10:31:55.582Z,1.20
2022-11-16T10:34:58.097Z,1.30
2022-11-16T10:38:01.223Z,1.23
2022-11-16T10:41:04.059Z,1.08
2022-11-16T10:44:07.014Z,1.20
2022-11-16T10:47:10.218Z,1.23
2022-11-16T10:50:13.383Z,1.20
2022-11-16T10:53:16.460Z,1.25
2022-11-16T10:56:19.275Z,1.40
2022-11-16T10:59:21.530Z,1.00
2022-11-16T11:02:24.266Z,1.20
2022-11-16T11:05:27.105Z,1.20
2022-11-16T11:08:29.244Z,1.20
2022-11-16T11:11:31.794Z,1.30
2022-11-16T11:14:34.657Z,1.30
2022-11-16T11:17:37.503Z,1.20
2022-11-16T11:20:44.520Z,1.17
2022-11-16T11:23:47.505Z,1.17
2022-11-16T11:26:50.150Z,1.20
2022-11-16T11:29:53.411Z,1.63
2022-11-16T11:32:56.258Z,1.20
2022-11-16T11:35:58.955Z,1.13
2022-11-16T11:39:01.663Z,1.00
2022-11-16T11:42:04.784Z,1.00
2022-11-16T11:45:07.187Z,1.10
2022-11-16T11:48:10.058Z,1.30
2022-11-16T11:51:12.878Z,1.30
2022-11-16T11:54:15.041Z,1.20
2022-11-16T11:57:17.616Z,1.27
2022-11-16T12:00:20.154Z,1.20
2022-11-16T12:03:22.715Z,0.95
2022-11-16T12:06:25.899Z,1.15
2022-11-16T12:09:28.679Z,1.10
2022-11-16T12:12:31.883Z,1.20
2022-11-16T12:15:34.343Z,1.20
2022-11-16T12:18:37.202Z,0.98
2022-11-16T12:21:40.287Z,1.10
2022-11-16T12:24:43.531Z,1.23
2022-11-16T12:27:45.911Z,0.90
2022-11-16T12:30:48.487Z,0.90
2022-11-16T12:33:50.993Z,1.10
2022-11-16T12:36:53.371Z,1.00
2022-11-16T12:39:55.929Z,0.90
2022-11-16T12:42:58.388Z,0.90
2022-11-16T12:46:01.105Z,1.00
2022-11-16T12:49:03.676Z,0.90
2022-11-16T12:52:05.975Z,0.93
2022-11-16T12:58:31.173Z,1.05
2022-11-16T13:01:33.913Z,0.95
2022-11-16T13:04:37.045Z,1.00
2022-11-16T13:07:39.632Z,1.05
2022-11-16T13:10:42.503Z,0.80
2022-11-16T13:13:51.544Z,0.93
2022-11-16T13:16:55.002Z,1.00
2022-11-16T13:19:57.408Z,1.10
2022-11-16T13:23:00.389Z,1.08
2022-11-16T13:26:02.571Z,1.05
2022-11-16T13:29:05.506Z,1.10
2022-11-16T13:32:08.545Z,0.90
2022-11-16T13:35:11.659Z,0.95
2022-11-16T13:38:14.443Z,1.08
2022-11-16T13:41:17.354Z,0.90
2022-11-16T13:44:20.555Z,0.90
2022-11-16T13:47:23.861Z,0.90
2022-11-16T13:50:27.037Z,0.90
2022-11-16T13:54:25.261Z,0.80
2022-11-16T13:56:51.328Z,0.85
2022-11-16T13:59:53.925Z,0.70
2022-11-16T14:03:01.004Z,0.80
2022-11-16T14:06:04.419Z,0.80
2022-11-16T14:09:06.773Z,0.80
2022-11-16T14:12:08.867Z,1.10
2022-11-16T14:15:11.453Z,0.90
2022-11-16T14:18:14.015Z,0.80
2022-11-16T14:21:17.055Z,0.80
2022-11-16T14:24:19.732Z,0.90
2022-11-16T14:27:26.428Z,0.82
2022-11-16T14:30:31.614Z,0.70
2022-11-16T14:33:34.548Z,0.88
2022-11-16T14:36:36.934Z,0.70
2022-11-16T14:39:39.126Z,0.68
2022-11-16T14:42:54.746Z,1.00
2022-11-16T14:46:04.774Z,0.70
2022-11-16T14:49:07.131Z,0.90
2022-11-16T14:52:09.832Z,0.75
2022-11-16T14:55:13.090Z,0.80
2022-11-16T14:58:15.233Z,0.75
2022-11-16T15:01:17.538Z,0.75
2022-11-16T15:04:20.169Z,0.80
2022-11-16T15:07:22.386Z,0.95
2022-11-16T15:10:24.528Z,0.90
2022-11-16T15:13:27.433Z,1.20
2022-11-16T15:16:30.053Z,0.85
2022-11-16T15:19:32.607Z,0.75
2022-11-16T15:22:35.354Z,0.88
2022-11-16T15:25:37.867Z,0.80
2022-11-16T15:28:44.556Z,1.10
2022-11-16T15:31:49.132Z,0.80
2022-11-16T15:34:51.284Z,0.75
2022-11-16T15:37:53.915Z,0.60
2022-11-16T15:40:56.323Z,0.80
2022-11-16T15:44:13.888Z,0.80
2022-11-16T15:47:17.726Z,0.73
2022-11-16T15:50:20.656Z,0.70
2022-11-16T15:53:23.588Z,0.77
2022-11-16T15:56:26.678Z,0.80
2022-11-16T15:59:29.294Z,0.60
2022-11-16T16:02:32.587Z,0.77
2022-11-16T16:05:35.165Z,0.60
2022-11-16T16:08:37.868Z,0.63
2022-11-16T16:11:40.770Z,0.80
2022-11-16T16:14:43.754Z,0.68
2022-11-16T16:17:46.436Z,0.70
2022-11-16T16:20:48.854Z,0.77
2022-11-16T16:23:51.716Z,0.77
2022-11-16T16:26:54.588Z,0.77
2022-11-16T16:29:56.992Z,0.60
2022-11-16T16:32:59.984Z,0.70
2022-11-16T16:36:02.399Z,0.70
2022-11-16T16:39:04.590Z,0.77
2022-11-16T16:42:07.080Z,0.60
2022-11-16T16:45:09.609Z,0.70
2022-11-16T16:48:11.980Z,0.75
2022-11-16T16:51:14.174Z,0.82
2022-11-16T16:54:16.310Z,0.68
2022-11-16T16:57:19.188Z,0.60
2022-11-16T17:00:22.050Z,0.68
2022-11-16T17:03:24.150Z,0.70
2022-11-16T17:06:26.367Z,0.90
2022-11-16T17:09:28.945Z,0.70
2022-11-16T17:12:31.435Z,0.70
2022-11-16T17:15:33.921Z,0.80
2022-11-16T17:18:36.997Z,0.60
2022-11-16T17:21:39.494Z,0.70
2022-11-16T17:24:42.508Z,0.70
2022-11-16T17:27:45.443Z,0.60
2022-11-16T17:30:48.205Z,0.60
2022-11-16T17:33:50.669Z,0.80
2022-11-16T17:36:53.855Z,0.60
2022-11-16T17:39:56.612Z,0.80
2022-11-16T17:42:58.974Z,0.80
2022-11-16T17:46:01.365Z,0.80
2022-11-16T17:49:04.191Z,0.60
2022-11-16T17:52:07.082Z,0.70
2022-11-16T17:55:09.794Z,0.60
2022-11-16T17:58:12.510Z,0.73
2022-11-16T18:01:15.396Z,0.60
2022-11-16T18:04:17.996Z,0.60
2022-11-16T18:07:20.949Z,0.50
2022-11-16T18:10:23.727Z,0.60
2022-11-16T18:13:26.627Z,0.57
2022-11-16T18:16:29.238Z,0.73
2022-11-16T18:19:32.178Z,0.68
2022-11-16T18:22:35.583Z,0.60
2022-11-16T18:25:37.900Z,0.88
2022-11-16T18:28:40.844Z,0.70
2022-11-16T18:31:44.289Z,0.90
2022-11-16T18:34:47.172Z,0.70
2022-11-16T18:37:49.644Z,0.80
2022-11-16T18:40:52.012Z,0.82
2022-11-16T18:43:54.927Z,0.77
2022-11-16T18:46:58.326Z,0.90
2022-11-16T18:50:01.728Z,0.65
2022-11-16T18:53:04.292Z,0.70
2022-11-16T18:56:06.408Z,0.68
2022-11-16T18:59:08.901Z,0.77
2022-11-16T19:02:12.044Z,0.90
2022-11-16T19:05:15.321Z,0.90
2022-11-16T19:08:19.004Z,0.70
2022-11-16T19:11:22.159Z,0.70
2022-11-16T19:14:25.323Z,0.90
2022-11-16T19:17:28.162Z,0.75
2022-11-16T19:20:30.335Z,0.73
2022-11-16T19:23:33.000Z,0.90
2022-11-16T19:26:36.360Z,0.93
2022-11-16T19:29:39.162Z,0.70
2022-11-16T19:32:42.178Z,0.77
2022-11-16T19:35:45.480Z,0.73
2022-11-16T19:38:48.780Z,0.90
2022-11-16T19:41:50.910Z,0.85
2022-11-16T19:44:53.091Z,0.80
2022-11-16T19:47:55.555Z,0.73
2022-11-16T19:50:57.930Z,0.60
2022-11-16T19:54:00.940Z,0.88
2022-11-16T19:57:03.811Z,0.90
2022-11-16T20:00:06.431Z,0.80
2022-11-16T20:03:08.983Z,0.77
2022-11-16T20:06:11.465Z,1.02
2022-11-16T20:09:14.154Z,0.80
2022-11-16T20:12:16.917Z,0.80
2022-11-16T20:26:05.332Z,0.60
2022-11-16T20:29:07.840Z,0.80
2022-11-16T20:32:10.084Z,0.77
2022-11-16T20:35:18.796Z,0.70
2022-11-16T20:38:22.540Z,0.70
2022-11-16T20:41:26.253Z,0.75
2022-11-16T20:44:29.383Z,0.95
2022-11-16T20:47:32.127Z,0.93
2022-11-16T20:50:34.623Z,0.90
2022-11-16T20:53:38.025Z,0.80
2022-11-16T20:56:40.894Z,0.98
2022-11-16T20:59:43.584Z,1.02
2022-11-16T21:02:46.586Z,0.80
2022-11-16T21:05:49.248Z,0.70
2022-11-16T21:08:52.169Z,0.82
2022-11-16T21:11:54.517Z,0.70
2022-11-16T21:14:57.102Z,0.90
2022-11-16T21:17:59.186Z,1.00
2022-11-16T21:21:02.091Z,0.90
2022-11-16T21:24:04.505Z,0.80
2022-11-16T21:27:07.671Z,0.85
2022-11-16T21:30:11.007Z,0.90
2022-11-16T21:33:14.177Z,0.80
2022-11-16T21:36:16.574Z,1.00
2022-11-16T21:39:19.499Z,1.02
2022-11-16T21:42:22.273Z,0.80
2022-11-16T21:45:24.912Z,0.88
2022-11-16T21:48:27.428Z,1.02
2022-11-16T21:51:30.362Z,1.00
2022-11-16T21:54:33.114Z,1.00
2022-11-16T21:57:35.561Z,0.95
2022-11-16T22:00:38.409Z,0.80
2022-11-16T22:03:41.277Z,1.02
2022-11-16T22:06:43.748Z,1.10
2022-11-16T22:09:46.961Z,1.20
2022-11-16T22:12:49.753Z,0.95
2022-11-16T22:15:52.436Z,1.10
2022-11-16T22:18:54.924Z,1.20
2022-11-16T22:21:57.051Z,1.20
2022-11-16T22:24:59.180Z,1.00
2022-11-16T22:31:24.576Z,0.95
2022-11-16T22:34:27.559Z,1.10
2022-11-16T22:37:30.659Z,1.20
2022-11-16T22:40:33.506Z,1.00
2022-11-16T22:43:36.483Z,1.02
2022-11-16T22:46:39.341Z,1.05
2022-11-16T22:49:41.825Z,1.05
2022-11-16T22:52:44.816Z,1.20
2022-11-16T22:55:48.392Z,1.10
2022-11-16T22:58:50.992Z,1.05
2022-11-16T23:01:53.926Z,1.10
2022-11-16T23:04:56.858Z,0.95
2022-11-16T23:07:59.823Z,1.02
2022-11-16T23:11:02.273Z,1.00
2022-11-16T23:14:05.129Z,0.98
2022-11-16T23:17:07.847Z,0.90
2022-11-16T23:20:16.239Z,0.98
2022-11-16T23:23:21.503Z,1.10
2022-11-16T23:26:24.550Z,0.90
2022-11-16T23:29:27.647Z,0.98
2022-11-16T23:32:30.691Z,0.90
2022-11-16T23:35:33.511Z,1.00
2022-11-16T23:38:36.640Z,1.10
2022-11-16T23:41:39.516Z,0.90
2022-11-16T23:44:42.122Z,0.90
2022-11-16T23:47:44.375Z,1.02
2022-11-16T23:50:47.272Z,1.15
2022-11-16T23:53:49.739Z,1.25
2022-11-16T23:56:52.612Z,1.00
2022-11-16T23:59:55.457Z,1.00
